Weather at Tetiaroa Airport

Public forecast

Using degrees Celsius for public forecast. Weather courtesy of forecast.io.

Closest aviation weather report (METAR) to Tetiaroa Airport

Closest report is Faa'a International Airport, 32.4 nm (59.9 km) S. Retrieved 2022/07/02 20:00 UTC (4 minutes ago):

NTAA 022000Z VRB03KT 9999 FEW026 27/19 Q1015 NOSIG

Closest aviation forecast (TAF) to Tetiaroa Airport

Closest forecast is Faa'a International Airport, 32.4 nm (59.9 km) S. Retrieved 2022/07/02 18:26 UTC (2 hours ago):

TAF NTAA 021700Z 0218/0324 VRB05KT 9999 FEW023 BKN055 PROB30 TEMPO 0220/0302 20015KT